Terminal Aerodrome Forecast
Issued by NWS La Crosse, WI

Home | Current Version | Previous Version | Text Only | Print | Product List | Glossary On
Versions: 1 2 3 4 5 6 7 8 9 10 11 12 13 14 15 16 17 18 19 20 21 22 23 24 25 26 27 28 29
000
FTUS43 KARX 020631 AAA
TAFRST
TAF AMD
KRST 020631Z 0207/0306 23011KT P6SM -SHRA OVC070
      TEMPO 0207/0209 4SM -SHRA BKN010
     FM020900 31008KT P6SM -SHRA BKN070
     FM021200 31012KT P6SM SCT100
     FM021700 29016G25KT P6SM SKC
     FM030000 31012KT P6SM SCT200=

USA.gov is the U.S. government's official web portal to all federal, state and local government web resources and services.